TimeMST,TemperatureF,Dew PointF,Humidity,Sea Level PressureIn,VisibilityMPH,Wind Direction,Wind SpeedMPH,Gust SpeedMPH,PrecipitationIn,Events,Conditions,WindDirDegrees,DateUTC
12:15 AM,57.2,26.6,31,30.00,10.0,SE,6.9,-,N/A,,Clear,130,2012-10-31 07:15:00
12:35 AM,55.4,30.2,38,30.00,10.0,SE,6.9,-,N/A,,Clear,130,2012-10-31 07:35:00
12:55 AM,57.2,28.4,33,30.00,10.0,ESE,8.1,-,N/A,,Clear,120,2012-10-31 07:55:00
1:15 AM,57.2,26.6,31,30.00,10.0,ESE,6.9,-,N/A,,Clear,120,2012-10-31 08:15:00
1:35 AM,57.2,26.6,31,30.00,10.0,ESE,6.9,-,N/A,,Clear,110,2012-10-31 08:35:00
1:55 AM,57.2,26.6,31,30.00,10.0,ESE,6.9,-,N/A,,Clear,110,2012-10-31 08:55:00
2:15 AM,57.2,26.6,31,30.00,10.0,ESE,8.1,-,N/A,,Clear,120,2012-10-31 09:15:00
2:35 AM,57.2,26.6,31,30.00,10.0,ESE,9.2,-,N/A,,Clear,110,2012-10-31 09:35:00
2:55 AM,57.2,26.6,31,30.00,10.0,ESE,6.9,-,N/A,,Clear,110,2012-10-31 09:55:00
3:15 AM,55.4,23.0,29,30.00,10.0,ESE,8.1,-,N/A,,Clear,110,2012-10-31 10:15:00
3:35 AM,53.6,24.8,33,30.00,10.0,ESE,6.9,-,N/A,,Clear,110,2012-10-31 10:35:00
3:55 AM,53.6,24.8,33,30.00,10.0,East,6.9,-,N/A,,Clear,100,2012-10-31 10:55:00
4:15 AM,55.4,24.8,31,30.00,10.0,East,6.9,-,N/A,,Clear,100,2012-10-31 11:15:00
4:35 AM,53.6,23.0,30,30.00,10.0,East,8.1,-,N/A,,Clear,100,2012-10-31 11:35:00
4:55 AM,53.6,23.0,30,30.00,10.0,East,6.9,-,N/A,,Clear,100,2012-10-31 11:55:00
5:15 AM,53.6,23.0,30,30.00,10.0,East,8.1,-,N/A,,Clear,100,2012-10-31 12:15:00
5:47 AM,53.6,21.2,28,30.00,20.0,East,4.6,-,N/A,,Clear,100,2012-10-31 12:47:00
6:47 AM,53.6,24.8,33,30.02,30.0,East,3.5,-,N/A,,Partly Cloudy,90,2012-10-31 13:47:00
7:47 AM,55.4,24.8,31,30.04,30.0,ESE,4.6,-,N/A,,Partly Cloudy,120,2012-10-31 14:47:00
8:47 AM,62.6,30.2,30,30.05,35.0,SE,5.8,-,N/A,,Partly Cloudy,140,2012-10-31 15:47:00
9:47 AM,71.6,28.4,20,30.05,35.0,Calm,Calm,-,N/A,,Partly Cloudy,0,2012-10-31 16:47:00
10:47 AM,77.0,26.6,16,30.05,35.0,Calm,Calm,-,N/A,,Partly Cloudy,0,2012-10-31 17:47:00
11:47 AM,78.8,24.8,14,30.03,35.0,Calm,Calm,-,N/A,,Scattered Clouds,0,2012-10-31 18:47:00
12:47 PM,82.4,26.6,13,30.00,35.0,West,5.8,-,N/A,,Scattered Clouds,270,2012-10-31 19:47:00
1:47 PM,84.2,24.8,11,29.97,35.0,WNW,5.8,-,N/A,,Scattered Clouds,290,2012-10-31 20:47:00
2:47 PM,84.2,24.8,11,29.95,35.0,West,4.6,-,N/A,,Mostly Cloudy,270,2012-10-31 21:47:00
3:58 PM,84.2,24.8,11,29.94,35.0,West,4.6,-,N/A,,Mostly Cloudy,260,2012-10-31 22:58:00
5:47 PM,78.8,24.8,14,29.93,20.0,Calm,Calm,-,N/A,,Mostly Cloudy,0,2012-11-01 00:47:00
6:51 PM,71.6,28.4,20,29.95,20.0,Variable,3.5,-,N/A,,Clear,0,2012-11-01 01:51:00
7:49 PM,64.4,28.4,26,29.95,20.0,East,4.6,-,N/A,,Clear,90,2012-11-01 02:49:00
7:55 PM,64.4,26.6,24,29.95,10.0,Calm,Calm,-,N/A,,Clear,0,2012-11-01 02:55:00
8:15 PM,64.4,24.8,22,29.96,10.0,East,6.9,-,N/A,,Clear,90,2012-11-01 03:15:00
8:35 PM,62.6,23.0,22,29.96,10.0,East,6.9,-,N/A,,Clear,80,2012-11-01 03:35:00
8:47 PM,62.6,23.0,22,29.96,20.0,Variable,5.8,-,N/A,,Partly Cloudy,0,2012-11-01 03:47:00
8:55 PM,62.6,23.0,22,29.97,10.0,East,4.6,-,N/A,,Clear,90,2012-11-01 03:55:00
9:15 PM,60.8,26.6,27,29.97,10.0,SE,5.8,-,N/A,,Clear,130,2012-11-01 04:15:00
9:35 PM,59.0,30.2,34,29.97,10.0,ESE,6.9,-,N/A,,Clear,120,2012-11-01 04:35:00
9:55 PM,59.0,28.4,31,29.97,10.0,ESE,6.9,-,N/A,,Clear,110,2012-11-01 04:55:00
10:15 PM,60.8,23.0,23,29.97,10.0,East,8.1,-,N/A,,Clear,100,2012-11-01 05:15:00
10:35 PM,59.0,23.0,25,29.97,10.0,ESE,6.9,-,N/A,,Clear,110,2012-11-01 05:35:00
10:55 PM,57.2,23.0,27,29.97,10.0,ESE,5.8,-,N/A,,Clear,120,2012-11-01 05:55:00
11:15 PM,57.2,21.2,25,29.97,10.0,East,8.1,-,N/A,,Clear,100,2012-11-01 06:15:00
11:35 PM,57.2,23.0,27,29.98,10.0,SSE,5.8,-,N/A,,Clear,150,2012-11-01 06:35:00
11:55 PM,57.2,28.4,33,29.98,10.0,SE,6.9,-,N/A,,Clear,130,2012-11-01 06:55:00